createdAt,value
2017-10-12T00:01:04.991Z,5.15
2017-10-12T00:03:32.933Z,3.97
2017-10-12T00:06:05.431Z,3.20
2017-10-12T00:08:35.902Z,3.35
2017-10-12T00:11:06.092Z,4.28
2017-10-12T00:13:34.798Z,3.60
2017-10-12T00:16:04.439Z,4.00
2017-10-12T00:18:36.419Z,4.40
2017-10-12T00:21:06.131Z,3.60
2017-10-12T00:23:38.158Z,4.87
2017-10-12T00:26:12.287Z,5.62
2017-10-12T00:28:41.006Z,4.87
2017-10-12T00:31:10.955Z,4.37
2017-10-12T00:36:26.842Z,4.25
2017-10-12T00:39:00.067Z,4.05
2017-10-12T00:41:36.398Z,5.18
2017-10-12T00:44:08.735Z,4.95
2017-10-12T00:46:44.269Z,6.10
2017-10-12T00:49:14.267Z,7.87
2017-10-12T00:51:42.362Z,5.55
2017-10-12T00:54:12.828Z,6.10
2017-10-12T00:56:47.085Z,4.50
2017-10-12T00:59:18.114Z,8.60
2017-10-12T01:01:47.166Z,5.47
2017-10-12T01:04:17.017Z,5.20
2017-10-12T01:06:52.505Z,5.47
2017-10-12T01:09:21.879Z,4.62
2017-10-12T01:11:52.612Z,4.90
2017-10-12T01:14:20.546Z,5.95
2017-10-12T01:16:50.450Z,5.80
2017-10-12T01:19:26.058Z,6.07
2017-10-12T01:21:55.545Z,5.25
2017-10-12T01:24:23.158Z,6.82
2017-10-12T01:26:50.931Z,6.68
2017-10-12T01:29:19.001Z,4.93
2017-10-12T01:31:46.934Z,5.68
2017-10-12T01:34:15.008Z,4.80
2017-10-12T01:36:42.687Z,6.72
2017-10-12T01:39:10.191Z,6.85
2017-10-12T01:41:37.791Z,5.55
2017-10-12T01:44:05.296Z,6.15
2017-10-12T01:46:33.735Z,5.75
2017-10-12T01:49:01.247Z,5.00
2017-10-12T01:51:28.739Z,8.02
2017-10-12T01:53:56.299Z,5.28
2017-10-12T01:56:24.731Z,5.15
2017-10-12T01:58:52.668Z,8.35
2017-10-12T02:01:20.171Z,5.65
2017-10-12T02:03:47.657Z,5.62
2017-10-12T02:06:15.192Z,4.80
2017-10-12T02:08:42.679Z,5.07
2017-10-12T02:11:10.183Z,5.65
2017-10-12T02:13:38.068Z,6.53
2017-10-12T02:16:06.506Z,4.80
2017-10-12T02:18:34.319Z,5.53
2017-10-12T02:21:01.817Z,5.60
2017-10-12T02:23:29.340Z,6.05
2017-10-12T02:25:57.803Z,4.22
2017-10-12T02:28:25.293Z,4.50
2017-10-12T02:30:52.819Z,3.97
2017-10-12T02:33:20.348Z,4.37
2017-10-12T02:35:49.811Z,5.40
2017-10-12T02:38:17.320Z,4.47
2017-10-12T02:40:45.206Z,3.70
2017-10-12T02:43:12.739Z,4.18
2017-10-12T02:45:41.329Z,3.70
2017-10-12T02:48:09.243Z,4.43
2017-10-12T02:50:36.739Z,5.12
2017-10-12T02:53:05.180Z,5.28
2017-10-12T02:55:33.086Z,4.10
2017-10-12T02:58:00.588Z,5.47
2017-10-12T03:00:30.111Z,5.72
2017-10-12T03:02:57.603Z,4.43
2017-10-12T03:05:25.091Z,5.35
2017-10-12T03:07:52.993Z,3.80
2017-10-12T03:10:20.482Z,4.28
2017-10-12T03:12:47.983Z,4.80
2017-10-12T03:15:15.855Z,5.03
2017-10-12T03:17:43.339Z,5.93
2017-10-12T03:20:10.849Z,4.47
2017-10-12T03:22:38.863Z,8.52
2017-10-12T03:25:06.367Z,4.62
2017-10-12T03:27:33.858Z,3.85
2017-10-12T03:30:01.352Z,5.53
2017-10-12T03:32:29.818Z,4.37
2017-10-12T03:34:57.312Z,4.12
2017-10-12T03:37:24.818Z,4.87
2017-10-12T03:39:52.346Z,4.82
2017-10-12T03:42:19.827Z,5.47
2017-10-12T03:44:47.338Z,6.07
2017-10-12T03:47:14.828Z,4.37
2017-10-12T03:49:42.340Z,4.03
2017-10-12T03:52:10.195Z,5.15
2017-10-12T03:54:37.680Z,4.57
2017-10-12T03:57:05.179Z,4.47
2017-10-12T03:59:35.655Z,7.45
2017-10-12T04:02:03.167Z,6.75
2017-10-12T04:04:30.659Z,7.00
2017-10-12T04:06:58.147Z,5.53
2017-10-12T04:09:27.587Z,6.93
2017-10-12T04:11:56.882Z,5.68
2017-10-12T04:14:24.787Z,11.40
2017-10-12T04:16:53.195Z,5.00
2017-10-12T04:19:22.239Z,4.57
2017-10-12T04:21:49.773Z,5.93
2017-10-12T04:24:19.679Z,5.03
2017-10-12T04:26:47.220Z,5.50
2017-10-12T04:29:14.716Z,7.53
2017-10-12T04:31:42.596Z,5.28
2017-10-12T04:34:11.933Z,8.10
2017-10-12T04:36:40.783Z,5.55
2017-10-12T04:39:08.318Z,5.72
2017-10-12T04:41:35.831Z,4.95
2017-10-12T04:44:04.254Z,4.65
2017-10-12T04:46:31.771Z,5.05
2017-10-12T04:49:00.535Z,5.20
2017-10-12T04:51:28.060Z,5.10
2017-10-12T04:53:55.794Z,4.07
2017-10-12T04:56:24.492Z,4.10
2017-10-12T04:58:53.940Z,4.97
2017-10-12T05:01:21.431Z,5.45
2017-10-12T05:03:48.954Z,4.57
2017-10-12T05:06:16.744Z,4.00
2017-10-12T05:08:44.231Z,8.20
2017-10-12T05:11:11.742Z,5.65
2017-10-12T05:13:41.234Z,4.60
2017-10-12T05:16:09.165Z,5.37
2017-10-12T05:18:36.754Z,5.20
2017-10-12T05:21:04.631Z,4.65
2017-10-12T05:23:32.150Z,6.78
2017-10-12T05:25:59.643Z,4.93
2017-10-12T05:28:28.421Z,5.45
2017-10-12T05:30:56.335Z,4.70
2017-10-12T05:33:24.364Z,4.80
2017-10-12T05:35:52.260Z,4.78
2017-10-12T05:38:19.760Z,5.72
2017-10-12T05:40:47.678Z,5.40
2017-10-12T05:43:15.177Z,4.47
2017-10-12T05:45:42.687Z,4.78
2017-10-12T05:48:10.175Z,7.57
2017-10-12T05:50:38.566Z,5.18
2017-10-12T05:53:06.051Z,5.00
2017-10-12T05:55:33.563Z,4.70
2017-10-12T05:58:01.067Z,5.62
2017-10-12T06:00:28.579Z,5.65
2017-10-12T06:02:56.724Z,6.05
2017-10-12T06:05:24.231Z,4.00
2017-10-12T06:07:52.342Z,7.18
2017-10-12T06:10:20.991Z,5.57
2017-10-12T06:12:48.501Z,4.18
2017-10-12T06:15:16.014Z,5.00
2017-10-12T06:17:43.497Z,5.25
2017-10-12T06:20:11.407Z,5.03
2017-10-12T06:22:38.906Z,4.97
2017-10-12T06:25:06.760Z,5.80
2017-10-12T06:27:34.243Z,6.00
2017-10-12T06:30:01.747Z,10.65
2017-10-12T06:32:29.251Z,6.03
2017-10-12T06:34:58.733Z,6.93
2017-10-12T06:37:27.048Z,7.00
2017-10-12T06:39:54.923Z,4.95
2017-10-12T06:42:23.748Z,7.10
2017-10-12T06:44:51.273Z,4.05
2017-10-12T06:47:20.116Z,6.40
2017-10-12T06:49:47.643Z,6.03
2017-10-12T06:52:15.145Z,6.30
2017-10-12T06:54:42.623Z,7.75
2017-10-12T06:57:10.527Z,6.53
2017-10-12T06:59:38.023Z,3.97
2017-10-12T07:02:05.634Z,5.10
2017-10-12T07:04:33.213Z,5.70
2017-10-12T07:07:01.703Z,5.60
2017-10-12T07:09:29.208Z,5.00
2017-10-12T07:11:57.112Z,5.25
2017-10-12T07:14:26.853Z,7.28
2017-10-12T07:16:54.359Z,8.50
2017-10-12T07:19:22.262Z,5.87
2017-10-12T07:21:50.593Z,7.93
2017-10-12T07:24:20.436Z,4.35
2017-10-12T07:26:47.927Z,5.75
2017-10-12T07:29:15.431Z,4.30
2017-10-12T07:31:45.284Z,6.95
2017-10-12T07:34:13.042Z,5.18
2017-10-12T07:36:40.548Z,4.95
2017-10-12T07:39:08.457Z,4.40
2017-10-12T07:41:35.951Z,5.32
2017-10-12T07:44:03.496Z,5.32
2017-10-12T07:46:30.999Z,4.07
2017-10-12T07:48:58.896Z,5.30
2017-10-12T07:51:28.350Z,5.50
2017-10-12T07:53:55.874Z,7.00
2017-10-12T07:56:23.359Z,3.35
2017-10-12T07:58:50.876Z,5.50
2017-10-12T08:01:18.380Z,4.25
2017-10-12T08:03:45.890Z,4.82
2017-10-12T08:06:13.393Z,4.60
2017-10-12T08:08:40.892Z,3.77
2017-10-12T08:11:08.794Z,3.80
2017-10-12T08:13:37.179Z,3.90
2017-10-12T08:16:04.699Z,4.00
2017-10-12T08:18:32.575Z,4.07
2017-10-12T08:21:00.068Z,4.22
2017-10-12T08:23:27.580Z,4.32
2017-10-12T08:25:55.067Z,2.87
2017-10-12T08:28:22.567Z,2.90
2017-10-12T08:30:50.050Z,3.83
2017-10-12T08:33:17.960Z,3.75
2017-10-12T08:35:45.471Z,3.40
2017-10-12T08:38:13.375Z,2.85
2017-10-12T08:40:40.862Z,2.63
2017-10-12T08:43:09.427Z,2.60
2017-10-12T08:45:36.919Z,3.40
2017-10-12T08:48:04.423Z,2.70
2017-10-12T08:50:31.924Z,2.73
2017-10-12T08:52:59.429Z,2.70
2017-10-12T08:55:26.914Z,2.10
2017-10-12T08:58:01.621Z,2.33
2017-10-12T09:00:29.099Z,1.83
2017-10-12T09:02:56.611Z,2.10
2017-10-12T09:05:24.495Z,1.83
2017-10-12T09:07:52.415Z,2.07
2017-10-12T09:10:19.898Z,1.83
2017-10-12T09:12:47.399Z,2.47
2017-10-12T09:15:15.823Z,2.60
2017-10-12T09:17:43.330Z,1.70
2017-10-12T09:20:10.847Z,1.73
2017-10-12T09:22:39.321Z,1.80
2017-10-12T09:25:06.794Z,1.00
2017-10-12T09:27:34.694Z,2.70
2017-10-12T09:30:02.251Z,2.50
2017-10-12T09:32:31.767Z,1.60
2017-10-12T09:34:59.248Z,1.73
2017-10-12T09:37:26.780Z,1.20
2017-10-12T09:39:54.283Z,1.67
2017-10-12T09:42:21.769Z,1.20
2017-10-12T09:44:49.670Z,1.60
2017-10-12T09:47:17.479Z,2.40
2017-10-12T09:49:45.224Z,1.63
2017-10-12T09:52:12.729Z,1.90
2017-10-12T09:54:40.210Z,1.17
2017-10-12T09:57:07.703Z,1.00
2017-10-12T09:59:35.204Z,1.20
2017-10-12T10:02:02.693Z,1.57
2017-10-12T10:04:30.231Z,2.33
2017-10-12T10:06:57.712Z,1.70
2017-10-12T10:09:25.210Z,0.97
2017-10-12T10:11:54.662Z,4.60
2017-10-12T10:14:23.097Z,1.43
2017-10-12T10:16:50.601Z,1.57
2017-10-12T10:19:18.074Z,0.80
2017-10-12T10:21:45.561Z,2.33
2017-10-12T10:24:13.069Z,1.77
2017-10-12T10:26:41.476Z,1.10
2017-10-12T10:29:08.983Z,1.33
2017-10-12T10:31:59.742Z,1.53
2017-10-12T10:34:27.225Z,2.30
2017-10-12T10:36:54.737Z,1.10
2017-10-12T10:39:22.214Z,0.90
2017-10-12T10:41:49.720Z,1.57
2017-10-12T10:44:17.768Z,1.00
2017-10-12T10:46:45.281Z,2.13
2017-10-12T10:49:13.692Z,1.77
2017-10-12T10:51:41.791Z,1.73
2017-10-12T10:54:10.272Z,1.20
2017-10-12T10:56:38.202Z,0.80
2017-10-12T10:59:05.687Z,2.10
2017-10-12T11:01:34.201Z,1.00
2017-10-12T11:04:01.684Z,0.90
2017-10-12T11:06:29.196Z,2.20
2017-10-12T11:08:57.087Z,1.13
2017-10-12T11:11:24.631Z,1.43
2017-10-12T11:13:53.319Z,2.93
2017-10-12T11:16:21.218Z,1.10
2017-10-12T11:18:48.718Z,1.83
2017-10-12T11:21:16.220Z,1.37
2017-10-12T11:23:43.700Z,3.33
2017-10-12T11:26:13.114Z,1.67
2017-10-12T11:28:40.606Z,1.00
2017-10-12T11:31:09.391Z,1.10
2017-10-12T11:33:36.900Z,1.00
2017-10-12T11:36:04.387Z,2.40
2017-10-12T11:38:31.911Z,1.90
2017-10-12T11:40:59.399Z,1.90
2017-10-12T11:43:26.940Z,4.53
2017-10-12T11:45:54.428Z,2.07
2017-10-12T11:48:22.236Z,1.93
2017-10-12T11:50:49.737Z,3.27
2017-10-12T11:53:19.212Z,1.60
2017-10-12T11:55:46.705Z,0.83
2017-10-12T11:58:15.223Z,1.97
2017-10-12T12:00:43.103Z,0.93
2017-10-12T12:03:12.568Z,1.20
2017-10-12T12:05:40.055Z,1.43
2017-10-12T12:08:09.331Z,1.33
2017-10-12T12:10:36.828Z,1.77
2017-10-12T12:13:04.323Z,1.43
2017-10-12T12:15:32.299Z,1.30
2017-10-12T12:17:59.803Z,1.00
2017-10-12T12:20:27.306Z,1.70
2017-10-12T12:22:55.731Z,3.20
2017-10-12T12:25:24.579Z,4.07
2017-10-12T12:27:52.879Z,1.37
2017-10-12T12:30:20.372Z,1.20
2017-10-12T12:32:47.872Z,2.60
2017-10-12T12:35:15.351Z,1.10
2017-10-12T12:37:42.838Z,2.70
2017-10-12T12:40:10.737Z,0.90
2017-10-12T12:42:38.311Z,1.63
2017-10-12T12:45:05.848Z,1.50
2017-10-12T12:47:33.360Z,0.93
2017-10-12T12:50:01.803Z,2.43
2017-10-12T12:52:29.300Z,1.03
2017-10-12T12:54:56.779Z,2.90
2017-10-12T12:57:24.307Z,2.17
2017-10-12T12:59:51.795Z,3.33
2017-10-12T13:02:19.666Z,1.67
2017-10-12T13:04:47.170Z,1.73
2017-10-12T13:07:15.604Z,1.27
2017-10-12T13:09:43.103Z,1.10
2017-10-12T13:12:10.611Z,1.60
2017-10-12T13:14:38.135Z,2.33
2017-10-12T13:17:05.632Z,1.63
2017-10-12T13:19:33.128Z,0.97
2017-10-12T13:22:01.928Z,2.93
2017-10-12T13:24:29.415Z,7.87
2017-10-12T13:26:56.906Z,1.20
2017-10-12T13:29:24.402Z,0.80
2017-10-12T13:31:51.891Z,1.20
2017-10-12T13:34:19.398Z,1.10
2017-10-12T13:36:46.889Z,4.87
2017-10-12T13:39:14.407Z,3.10
2017-10-12T13:41:42.703Z,1.70
2017-10-12T13:44:10.188Z,1.40
2017-10-12T13:46:37.687Z,2.23
2017-10-12T13:49:06.335Z,0.93
2017-10-12T13:51:33.822Z,1.17
2017-10-12T13:54:04.031Z,2.30
2017-10-12T13:56:32.121Z,1.40
2017-10-12T13:58:59.646Z,1.83
2017-10-12T14:01:27.979Z,2.47
2017-10-12T14:03:59.458Z,1.10
2017-10-12T14:06:26.939Z,0.93
2017-10-12T14:08:54.526Z,1.50
2017-10-12T14:11:23.967Z,2.23
2017-10-12T14:13:51.555Z,1.23
2017-10-12T14:16:19.055Z,1.43
2017-10-12T14:18:46.539Z,2.17
2017-10-12T14:21:14.953Z,2.07
2017-10-12T14:23:42.564Z,2.83
2017-10-12T14:26:10.911Z,0.90
2017-10-12T14:28:39.136Z,1.03
2017-10-12T14:31:06.615Z,1.00
2017-10-12T14:33:34.096Z,0.70
2017-10-12T14:36:01.992Z,1.70
2017-10-12T14:38:29.479Z,1.37
2017-10-12T14:40:56.994Z,1.93
2017-10-12T14:45:58.562Z,0.90
2017-10-12T14:48:28.346Z,3.10
2017-10-12T14:50:55.832Z,1.90
2017-10-12T14:53:25.266Z,1.13
2017-10-12T14:55:55.804Z,2.90
2017-10-12T14:58:23.346Z,0.93
2017-10-12T15:00:53.380Z,1.67
2017-10-12T15:03:21.342Z,0.97
2017-10-12T15:05:49.836Z,2.13
2017-10-12T15:08:17.355Z,2.90
2017-10-12T15:10:45.862Z,1.43
2017-10-12T15:13:13.347Z,2.83
2017-10-12T15:15:40.848Z,1.13
2017-10-12T15:18:09.245Z,4.73
2017-10-12T15:20:38.043Z,10.73
2017-10-12T15:23:06.345Z,1.83
2017-10-12T15:25:36.284Z,1.43
2017-10-12T15:28:03.800Z,1.97
2017-10-12T15:30:31.304Z,1.53
2017-10-12T15:32:59.755Z,1.10
2017-10-12T15:35:27.810Z,1.70
2017-10-12T15:37:58.603Z,1.57
2017-10-12T15:40:26.700Z,1.10
2017-10-12T15:42:54.191Z,1.10
2017-10-12T15:45:21.685Z,1.90
2017-10-12T15:47:50.387Z,1.90
2017-10-12T15:50:17.864Z,2.53
2017-10-12T15:52:45.385Z,2.10
2017-10-12T15:55:14.407Z,1.00
2017-10-12T15:57:41.901Z,2.50
2017-10-12T16:00:09.429Z,3.10
2017-10-12T16:02:36.911Z,1.30
2017-10-12T16:05:04.408Z,2.80
2017-10-12T16:07:31.887Z,1.50
2017-10-12T16:09:59.370Z,2.43
2017-10-12T16:12:28.847Z,4.80
2017-10-12T16:14:56.840Z,2.03
2017-10-12T16:17:24.359Z,3.07
2017-10-12T16:22:19.341Z,2.17
2017-10-12T16:24:46.855Z,1.10
2017-10-12T16:27:14.335Z,1.37
2017-10-12T16:29:41.816Z,2.07
2017-10-12T16:32:11.249Z,2.93
2017-10-12T16:34:39.164Z,2.60
2017-10-12T16:37:06.677Z,1.40
2017-10-12T16:39:34.559Z,1.60
2017-10-12T16:42:02.440Z,2.47
2017-10-12T16:44:30.759Z,2.70
2017-10-12T16:46:59.180Z,1.83
2017-10-12T16:49:30.159Z,2.80
2017-10-12T16:51:57.677Z,2.07
2017-10-12T16:54:25.171Z,1.90
2017-10-12T16:56:52.684Z,1.80
2017-10-12T16:59:20.571Z,1.53
2017-10-12T17:01:48.074Z,2.83
2017-10-12T17:04:16.504Z,1.57
2017-10-12T17:06:45.322Z,1.73
2017-10-12T17:09:12.827Z,4.53
2017-10-12T17:11:40.303Z,2.33
2017-10-12T17:14:08.208Z,3.13
2017-10-12T17:16:35.705Z,3.97
2017-10-12T17:19:03.191Z,4.87
2017-10-12T17:21:33.366Z,7.73
2017-10-12T17:24:01.805Z,4.23
2017-10-12T17:26:29.308Z,5.73
2017-10-12T17:28:56.793Z,3.80
2017-10-12T17:31:24.711Z,2.33
2017-10-12T17:33:53.876Z,2.10
2017-10-12T17:36:21.382Z,2.40
2017-10-12T17:38:49.922Z,2.37
2017-10-12T17:41:17.319Z,1.83
2017-10-12T17:43:44.823Z,2.60
2017-10-12T17:46:13.296Z,3.53
2017-10-12T17:48:40.881Z,1.97
2017-10-12T17:51:08.387Z,1.50
2017-10-12T17:53:35.873Z,1.63
2017-10-12T17:56:03.784Z,1.40
2017-10-12T17:58:31.264Z,1.30
2017-10-12T18:00:58.814Z,1.13
2017-10-12T18:03:26.293Z,3.37
2017-10-12T18:05:55.723Z,1.40
2017-10-12T18:08:24.552Z,2.20
2017-10-12T18:10:52.062Z,3.63
2017-10-12T18:13:19.943Z,1.83
2017-10-12T18:15:47.843Z,3.30
2017-10-12T18:18:15.326Z,1.90
2017-10-12T18:20:42.852Z,1.63
2017-10-12T18:23:12.333Z,3.23
2017-10-12T18:25:40.258Z,1.67
2017-10-12T18:28:07.785Z,3.20
2017-10-12T18:30:35.308Z,3.43
2017-10-12T18:33:03.188Z,3.20
2017-10-12T18:35:30.746Z,3.47
2017-10-12T18:37:58.250Z,3.30
2017-10-12T18:40:26.680Z,2.80
2017-10-12T18:42:54.587Z,2.60
2017-10-12T18:45:22.072Z,4.27
2017-10-12T18:47:49.593Z,1.80
2017-10-12T18:50:17.080Z,6.00
2017-10-12T18:52:44.848Z,2.87
2017-10-12T18:55:13.294Z,3.60
2017-10-12T18:57:41.731Z,5.30
2017-10-12T19:00:09.248Z,3.47
2017-10-12T19:05:04.279Z,5.47
2017-10-12T19:07:31.763Z,3.37
2017-10-12T19:09:59.704Z,2.60
2017-10-12T19:12:27.184Z,2.43
2017-10-12T19:14:54.720Z,2.77
2017-10-12T19:17:22.212Z,4.47
2017-10-12T19:19:50.113Z,2.70
2017-10-12T19:22:18.460Z,2.30
2017-10-12T19:24:47.234Z,3.10
2017-10-12T19:27:14.790Z,2.03
2017-10-12T19:29:42.299Z,3.00
2017-10-12T19:32:10.729Z,2.63
2017-10-12T19:34:38.220Z,3.20
2017-10-12T19:37:05.726Z,2.27
2017-10-12T19:39:33.232Z,5.33
2017-10-12T19:42:02.046Z,5.33
2017-10-12T19:44:29.575Z,3.00
2017-10-12T19:46:57.459Z,2.17
2017-10-12T19:49:24.976Z,2.43
2017-10-12T19:51:52.459Z,3.70
2017-10-12T19:54:20.371Z,2.90
2017-10-12T19:56:47.871Z,6.07
2017-10-12T19:59:17.828Z,3.07
2017-10-12T20:01:45.323Z,2.20
2017-10-12T20:04:12.882Z,3.17
2017-10-12T20:06:40.368Z,2.70
2017-10-12T20:09:08.251Z,2.97
2017-10-12T20:11:36.702Z,3.40
2017-10-12T20:14:19.575Z,3.42
2017-10-12T20:16:32.123Z,3.93
2017-10-12T20:18:59.635Z,3.87
2017-10-12T20:21:27.126Z,4.80
2017-10-12T20:26:22.172Z,3.30
2017-10-12T20:28:52.021Z,3.20
2017-10-12T20:31:19.985Z,2.97
2017-10-12T20:33:49.428Z,3.13
2017-10-12T20:36:17.837Z,2.97
2017-10-12T20:38:46.339Z,3.80
2017-10-12T20:41:13.834Z,4.03
2017-10-12T20:43:41.345Z,3.57
2017-10-12T20:46:09.224Z,3.43
2017-10-12T20:48:38.685Z,2.83
2017-10-12T20:51:06.171Z,3.57
2017-10-12T20:53:34.084Z,4.68
2017-10-12T20:56:01.587Z,3.28
2017-10-12T20:58:29.475Z,3.30
2017-10-12T21:00:57.016Z,4.53
2017-10-12T21:03:24.920Z,5.53
2017-10-12T21:05:52.432Z,3.60
2017-10-12T21:08:19.953Z,2.83
2017-10-12T21:10:47.443Z,5.23
2017-10-12T21:13:14.964Z,3.53
2017-10-12T21:15:42.734Z,3.10
2017-10-12T21:18:11.158Z,3.50
2017-10-12T21:20:39.076Z,3.50
2017-10-12T21:23:06.563Z,4.00
2017-10-12T21:25:35.040Z,3.83
2017-10-12T21:28:02.518Z,5.07
2017-10-12T21:30:30.395Z,4.53
2017-10-12T21:32:58.608Z,4.90
2017-10-12T21:35:26.118Z,7.22
2017-10-12T21:37:54.014Z,5.12
2017-10-12T21:40:21.507Z,3.27
2017-10-12T21:42:49.903Z,3.37
2017-10-12T21:45:17.398Z,4.37
2017-10-12T21:47:44.891Z,3.20
2017-10-12T21:50:12.427Z,7.97
2017-10-12T21:52:39.928Z,4.15
2017-10-12T21:55:09.259Z,3.20
2017-10-12T21:57:36.777Z,4.97
2017-10-12T22:00:04.877Z,5.67
2017-10-12T22:02:32.589Z,3.50
2017-10-12T22:05:00.111Z,6.12
2017-10-12T22:07:27.994Z,3.70
2017-10-12T22:09:55.530Z,3.20
2017-10-12T22:12:23.441Z,5.97
2017-10-12T22:14:51.841Z,4.78
2017-10-12T22:17:19.361Z,4.35
2017-10-12T22:19:46.901Z,2.83
2017-10-12T22:22:14.811Z,4.13
2017-10-12T22:24:42.391Z,3.47
2017-10-12T22:27:09.915Z,4.22
2017-10-12T22:29:37.428Z,4.30
2017-10-12T22:32:05.901Z,3.80
2017-10-12T22:34:33.432Z,3.80
2017-10-12T22:37:00.972Z,3.07
2017-10-12T22:39:28.484Z,3.17
2017-10-12T22:41:56.978Z,5.03
2017-10-12T22:44:24.907Z,3.92
2017-10-12T22:46:53.371Z,3.83
2017-10-12T22:49:21.332Z,3.97
2017-10-12T22:51:48.870Z,3.00
2017-10-12T22:54:16.416Z,4.15
2017-10-12T22:56:44.325Z,3.62
2017-10-12T22:59:12.069Z,3.50
2017-10-12T23:01:43.478Z,3.25
2017-10-12T23:04:13.396Z,2.95
2017-10-12T23:06:41.665Z,3.75
2017-10-12T23:09:09.240Z,4.30
2017-10-12T23:11:36.735Z,3.83
2017-10-12T23:14:05.918Z,4.05
2017-10-12T23:16:33.479Z,4.00
2017-10-12T23:19:01.534Z,4.60
2017-10-12T23:21:29.475Z,3.83
2017-10-12T23:23:57.010Z,3.80
2017-10-12T23:26:24.592Z,4.40
2017-10-12T23:28:52.509Z,6.65
2017-10-12T23:31:29.837Z,3.87
2017-10-12T23:37:01.426Z,3.90
2017-10-12T23:39:33.875Z,6.28
2017-10-12T23:42:02.348Z,4.72
2017-10-12T23:44:29.965Z,3.95
2017-10-12T23:46:57.463Z,5.75
2017-10-12T23:49:24.947Z,4.22
2017-10-12T23:51:55.086Z,4.18
2017-10-12T23:54:23.145Z,5.15
2017-10-12T23:57:01.286Z,3.70
2017-10-12T23:59:32.038Z,9.10
